CHC weather

Christchurch International Airport
Christchurch, Canterbury Region, New Zealand

Public forecast

Using degrees Celsius for public forecast. Weather courtesy of forecast.io.

Current aviation weather report (METAR) for Christchurch International Airport

Retrieved 2019/10/18 19:30 UTC (16 minutes ago):

NZCH 181930Z AUTO 24006KT 9999 NCD 09/08 Q1000 NOSIG

Aviation forecast (TAF) for Christchurch International Airport

Retrieved 2019/10/18 18:03 UTC (2 hours ago):

TAF NZCH 181700Z 1818/1918 24005KT 9999 FEW018 TEMPO 1818/1820 2000 BR BKN004 BECMG 1901/1903 08010KT BECMG 1906/1908 28005KT